St. Helena, NC

6:47 AM EDT on September 15, 2014 (GMT -0400)
St. Helena | Change Station
CLOSE
Current Station
Personal Weather Station
Location: Burgaw, NC
Elevation: 49 ft
Nearby Weather Stations
Active Advisory: Flood Advisory

Elev 49 ft 34.51 °N, 77.91 °W | Updated 18 hours ago

Rain
Rain
68 °F
Feels Like 68 °F
N
5
Wind Variable Wind from NNE
Gusts 7 mph

Today
High -- | Low -- °F
--% Chance of Precip.
Yesterday
High -- | Low -- °F
Precip. -- in
6:54 AM 7:18 PM
Waning Gibbous, 56% visible
Pressure 30.17 in
Visibility 10.0 miles
Clouds Overcast 2600 ft
Dew Point 64 °F
Humidity 90%
Rainfall 0.01 in
Snow Depth Not available.
UV 4.0 out of 12
Pollen 4.80 out of 12
Air Quality Not available.
Flu Activity Not available.
METAR KILM 150953Z AUTO 05005KT 10SM OVC026 21/18 A3017 RMK AO2 SLP217 T02060183

More Conditions Fewer Conditions

Pressure 30.17 in
Visibility 10.0 miles
Clouds Overcast 2600 ft
Dew Point 64 °F
Humidity 90%
Rainfall 0.01 in
Snow Depth Not available.
UV 4.0 out of 12
Pollen 4.80 out of 12
Air Quality Not available.
Flu Activity Not available.
METAR KILM 150953Z AUTO 05005KT 10SM OVC026 21/18 A3017 RMK AO2 SLP217 T02060183

More Conditions Fewer Conditions

10-Day Weather Forecast

Almanac

Astronomy

Sep. 15, 2014 Rise Set
Actual Time 6:54 AM EDT 7:18 PM EDT
Civil Twilight 6:29 AM EDT 7:43 PM EDT
Nautical Twilight 5:59 AM EDT 8:13 PM EDT
Astronomical Twilight 5:29 AM EDT 8:43 PM EDT
Moon No Moon Rise 1:38 PM EDT
Length of Visible Light 13h 14m
Length of Day
12h 23m
Tomorrow will be 2m 8s shorter.
Waning Gibbous, 56% of the Moon is Illuminated
Today
Waning Gibbous
Sep 15
Last Quarter
Sep 24
New
Oct 1
First Quarter
Oct 8
Full

Today's Extremes

State Highs State Lows

Community

WunderPhotos

Upload Photos

1,753,428 photos uploaded!

Nearby

Snow Depth

Station Depth Elevation
No new snow has been reported.

Earthquake Activity

City Distance Mag. Time & Date
No recent earthquake activity has been reported nearby.
Minimum magnitude displayed is 2.5.

Coastal Water Temperatures

Place Temperature
Johnny Mercer Pier, Wrightsville Beach, NC 82.0 °F
Beaufort, NC 79.0 °F
Springmaid Pier, SC 82.0 °F

Nearby Weather Stations